createdAt,value
2023-03-29T00:00:23.008Z,77.20
2023-03-29T00:03:24.739Z,77.40
2023-03-29T00:06:31.128Z,77.40
2023-03-29T00:09:33.339Z,77.50
2023-03-29T00:12:35.378Z,77.90
2023-03-29T00:15:37.013Z,78.10
2023-03-29T00:18:39.667Z,78.20
2023-03-29T00:21:41.324Z,78.60
2023-03-29T00:24:42.922Z,78.40
2023-03-29T00:27:44.521Z,78.30
2023-03-29T00:30:46.659Z,78.40
2023-03-29T00:33:48.281Z,78.20
2023-03-29T00:36:50.733Z,78.30
2023-03-29T00:39:53.161Z,78.40
2023-03-29T00:42:56.837Z,78.30
2023-03-29T00:45:58.433Z,78.10
2023-03-29T00:49:07.119Z,77.80
2023-03-29T00:52:08.837Z,77.60
2023-03-29T00:55:18.983Z,77.80
2023-03-29T00:58:26.216Z,77.70
2023-03-29T01:01:38.887Z,77.30
2023-03-29T01:04:46.200Z,77.20
2023-03-29T01:07:58.991Z,76.90
2023-03-29T01:11:06.619Z,76.90
2023-03-29T01:14:15.210Z,76.90
2023-03-29T01:17:16.922Z,76.80
2023-03-29T01:20:43.447Z,77.10
2023-03-29T01:24:06.959Z,76.90
2023-03-29T01:27:31.701Z,76.60
2023-03-29T01:30:45.512Z,76.20
2023-03-29T01:33:57.539Z,76.40
2023-03-29T01:37:17.874Z,76.40
2023-03-29T01:40:19.568Z,76.20
2023-03-29T01:43:23.953Z,76.30
2023-03-29T01:46:35.365Z,76.20
2023-03-29T01:49:53.249Z,76.20
2023-03-29T01:53:00.199Z,76.60
2023-03-29T01:56:12.396Z,76.70
2023-03-29T01:59:22.479Z,76.50
2023-03-29T02:02:27.687Z,76.60
2023-03-29T02:05:31.449Z,76.50
2023-03-29T02:08:33.148Z,76.20
2023-03-29T02:11:36.039Z,76.50
2023-03-29T02:14:38.133Z,76.70
2023-03-29T02:17:40.173Z,76.80
2023-03-29T02:20:47.161Z,77.30
2023-03-29T02:23:51.128Z,77.80
2023-03-29T02:26:52.813Z,78.20
2023-03-29T02:29:54.525Z,78.40
2023-03-29T02:33:19.118Z,78.60
2023-03-29T02:36:43.963Z,78.70
2023-03-29T02:39:49.664Z,79.20
2023-03-29T02:42:54.593Z,79.60
2023-03-29T02:45:56.942Z,79.80
2023-03-29T02:48:59.707Z,79.80
2023-03-29T02:52:11.536Z,79.70
2023-03-29T02:55:17.146Z,79.80
2023-03-29T02:58:19.085Z,79.70
2023-03-29T03:01:20.789Z,79.40
2023-03-29T03:04:22.910Z,79.10
2023-03-29T03:07:24.852Z,78.70
2023-03-29T03:10:26.471Z,78.00
2023-03-29T03:13:28.030Z,77.50
2023-03-29T03:16:29.720Z,77.10
2023-03-29T03:19:31.587Z,76.80
2023-03-29T03:22:34.899Z,76.70
2023-03-29T03:25:36.508Z,77.20
2023-03-29T03:28:38.850Z,77.50
2023-03-29T03:31:41.208Z,78.90
2023-03-29T03:34:43.459Z,79.20
2023-03-29T03:37:45.158Z,80.00
2023-03-29T03:40:53.948Z,80.30
2023-03-29T03:43:55.713Z,80.50
2023-03-29T03:46:57.288Z,80.60
2023-03-29T03:49:58.882Z,80.80
2023-03-29T03:53:00.510Z,80.70
2023-03-29T03:56:08.497Z,80.50
2023-03-29T03:59:10.789Z,80.10
2023-03-29T04:02:12.445Z,80.10
2023-03-29T04:05:14.898Z,80.20
2023-03-29T04:08:16.505Z,80.60
2023-03-29T04:11:18.086Z,80.70
2023-03-29T04:14:20.401Z,80.80
2023-03-29T04:17:22.441Z,80.70
2023-03-29T04:20:24.603Z,80.60
2023-03-29T04:23:26.133Z,80.50
2023-03-29T04:26:27.723Z,80.50
2023-03-29T04:29:29.294Z,80.40
2023-03-29T04:32:31.115Z,80.20
2023-03-29T04:35:33.250Z,80.20
2023-03-29T04:38:36.105Z,80.10
2023-03-29T04:41:37.746Z,79.90
2023-03-29T04:44:40.116Z,79.70
2023-03-29T04:47:41.903Z,79.60
2023-03-29T04:50:46.692Z,79.60
2023-03-29T04:53:50.120Z,79.60
2023-03-29T04:56:52.487Z,79.70
2023-03-29T04:59:54.158Z,79.70
2023-03-29T05:02:55.852Z,79.90
2023-03-29T05:06:06.656Z,79.90
2023-03-29T05:09:08.735Z,79.80
2023-03-29T05:12:10.295Z,79.70
2023-03-29T05:15:12.041Z,79.60
2023-03-29T05:18:13.629Z,79.50
2023-03-29T05:21:15.523Z,79.50
2023-03-29T05:24:17.661Z,79.30
2023-03-29T05:27:22.804Z,79.30
2023-03-29T05:30:24.413Z,79.30
2023-03-29T05:33:26.001Z,79.20
2023-03-29T05:36:28.242Z,79.20
2023-03-29T05:39:29.914Z,79.20
2023-03-29T05:42:31.540Z,78.90
2023-03-29T05:45:33.902Z,78.90
2023-03-29T05:48:35.973Z,78.80
2023-03-29T05:51:37.621Z,78.70
2023-03-29T05:54:39.456Z,78.80
2023-03-29T05:57:41.406Z,78.90
2023-03-29T06:00:43.733Z,79.00
2023-03-29T06:03:49.015Z,79.10
2023-03-29T06:06:50.875Z,79.10
2023-03-29T06:09:52.434Z,78.70
2023-03-29T06:12:54.424Z,78.80
2023-03-29T06:15:55.995Z,78.90
2023-03-29T06:18:58.097Z,78.50
2023-03-29T06:21:59.650Z,79.00
2023-03-29T06:25:01.705Z,79.10
2023-03-29T06:28:03.730Z,78.70
2023-03-29T06:31:05.842Z,77.80
2023-03-29T06:34:07.762Z,77.30
2023-03-29T06:37:09.552Z,76.70
2023-03-29T06:40:11.549Z,76.40
2023-03-29T06:43:14.032Z,76.80
2023-03-29T06:46:16.876Z,76.80
2023-03-29T06:49:18.901Z,76.90
2023-03-29T06:52:20.634Z,76.70
2023-03-29T06:55:23.464Z,76.90
2023-03-29T06:58:25.406Z,77.00
2023-03-29T07:01:27.587Z,77.00
2023-03-29T07:04:29.778Z,76.80
2023-03-29T07:07:51.478Z,76.80
2023-03-29T07:10:53.519Z,77.10
2023-03-29T07:13:55.545Z,77.10
2023-03-29T07:16:58.403Z,77.00
2023-03-29T07:20:00.418Z,76.80
2023-03-29T07:23:02.060Z,76.50
2023-03-29T07:26:06.723Z,76.20
2023-03-29T07:29:09.234Z,76.20
2023-03-29T07:32:11.306Z,75.20
2023-03-29T07:35:14.763Z,74.60
2023-03-29T07:38:16.570Z,74.50
2023-03-29T07:41:18.188Z,73.60
2023-03-29T07:44:21.458Z,73.30
2023-03-29T07:47:23.494Z,72.40
2023-03-29T07:50:25.661Z,71.50
2023-03-29T07:53:29.461Z,71.00
2023-03-29T07:56:31.309Z,71.00
2023-03-29T07:59:32.914Z,71.10
2023-03-29T08:02:34.526Z,70.40
2023-03-29T08:05:41.411Z,69.80
2023-03-29T08:08:43.410Z,68.50
2023-03-29T08:11:45.022Z,67.80
2023-03-29T08:14:47.129Z,67.00
2023-03-29T08:17:48.823Z,67.50
2023-03-29T08:20:51.724Z,66.70
2023-03-29T08:23:53.311Z,65.20
2023-03-29T08:26:54.868Z,65.70
2023-03-29T08:29:56.831Z,65.00
2023-03-29T08:32:58.661Z,65.00
2023-03-29T08:36:00.254Z,64.60
2023-03-29T08:39:03.315Z,64.30
2023-03-29T08:42:24.544Z,63.70
2023-03-29T08:45:37.157Z,63.20
2023-03-29T08:48:43.942Z,62.60
2023-03-29T08:51:52.916Z,62.20
2023-03-29T08:54:55.840Z,61.30
2023-03-29T08:58:00.131Z,61.20
2023-03-29T09:01:05.883Z,62.00
2023-03-29T09:04:12.118Z,62.10
2023-03-29T09:07:14.626Z,61.90
2023-03-29T09:10:18.069Z,61.80
2023-03-29T09:13:43.508Z,62.60
2023-03-29T09:17:06.931Z,62.20
2023-03-29T09:20:21.863Z,61.70
2023-03-29T09:23:47.472Z,61.90
2023-03-29T09:26:56.060Z,61.40
2023-03-29T09:30:26.100Z,61.40
2023-03-29T09:33:39.696Z,61.00
2023-03-29T09:36:59.079Z,61.60
2023-03-29T09:40:05.098Z,60.60
2023-03-29T09:43:11.135Z,60.70
2023-03-29T09:46:30.775Z,60.90
2023-03-29T09:49:37.708Z,60.80
2023-03-29T09:52:39.469Z,60.40
2023-03-29T09:55:42.742Z,60.30
2023-03-29T09:58:46.342Z,60.90
2023-03-29T10:01:48.159Z,61.20
2023-03-29T10:04:55.984Z,61.20
2023-03-29T10:08:01.074Z,61.60
2023-03-29T10:11:14.637Z,61.60
2023-03-29T10:14:20.466Z,61.70
2023-03-29T10:17:28.089Z,61.30
2023-03-29T10:20:30.337Z,61.50
2023-03-29T10:23:34.529Z,61.20
2023-03-29T10:26:38.929Z,61.00
2023-03-29T10:29:42.459Z,60.60
2023-03-29T10:32:44.428Z,59.90
2023-03-29T10:35:47.957Z,59.90
2023-03-29T10:38:51.790Z,59.70
2023-03-29T10:41:53.501Z,58.90
2023-03-29T10:44:59.892Z,59.00
2023-03-29T10:48:06.755Z,57.60
2023-03-29T10:51:08.441Z,58.60
2023-03-29T10:54:14.480Z,58.20
2023-03-29T10:57:26.322Z,57.90
2023-03-29T11:00:48.200Z,58.00
2023-03-29T11:04:28.756Z,57.50
2023-03-29T11:08:09.289Z,57.80
2023-03-29T11:11:40.913Z,57.70
2023-03-29T11:14:56.080Z,58.40
2023-03-29T11:18:22.165Z,58.60
2023-03-29T11:21:42.833Z,57.80
2023-03-29T11:25:11.448Z,58.60
2023-03-29T11:29:02.586Z,59.10
2023-03-29T11:32:21.141Z,58.80
2023-03-29T11:36:10.686Z,59.00
2023-03-29T11:39:26.863Z,58.40
2023-03-29T11:42:33.153Z,57.90
2023-03-29T11:45:41.152Z,58.40
2023-03-29T11:49:22.962Z,56.40
2023-03-29T11:52:34.045Z,56.80
2023-03-29T11:55:38.545Z,56.40
2023-03-29T11:58:44.622Z,56.50
2023-03-29T12:01:53.697Z,55.20
2023-03-29T12:04:59.015Z,54.70
2023-03-29T12:08:07.828Z,54.00
2023-03-29T12:11:35.099Z,54.00
2023-03-29T12:14:58.910Z,53.80
2023-03-29T12:18:26.455Z,52.80
2023-03-29T12:21:30.220Z,53.50
2023-03-29T12:24:32.995Z,53.70
2023-03-29T12:27:42.340Z,53.50
2023-03-29T12:31:06.154Z,53.70
2023-03-29T12:34:37.694Z,52.40
2023-03-29T12:38:04.848Z,53.10
2023-03-29T12:41:19.069Z,53.40
2023-03-29T12:44:23.418Z,53.80
2023-03-29T12:47:27.632Z,53.80
2023-03-29T12:50:41.661Z,54.30
2023-03-29T12:53:44.929Z,55.30
2023-03-29T12:56:52.315Z,56.00
2023-03-29T12:59:54.081Z,55.90
2023-03-29T13:03:06.262Z,55.90
2023-03-29T13:06:10.522Z,56.00
2023-03-29T13:09:23.047Z,54.10
2023-03-29T13:12:36.790Z,54.40
2023-03-29T13:15:39.312Z,53.60
2023-03-29T13:19:09.282Z,52.60
2023-03-29T13:22:41.634Z,52.00
2023-03-29T13:26:21.348Z,51.70
2023-03-29T13:29:49.207Z,51.90
2023-03-29T13:33:03.372Z,51.20
2023-03-29T13:36:11.614Z,51.10
2023-03-29T13:39:19.154Z,50.50
2023-03-29T13:42:25.305Z,50.20
2023-03-29T13:45:29.465Z,49.20
2023-03-29T13:48:37.512Z,49.60
2023-03-29T13:51:42.477Z,50.20
2023-03-29T13:54:57.892Z,49.80
2023-03-29T13:58:04.024Z,49.80
2023-03-29T14:01:12.030Z,50.30
2023-03-29T14:04:20.308Z,49.80
2023-03-29T14:07:26.170Z,48.90
2023-03-29T14:10:35.971Z,50.10
2023-03-29T14:13:38.158Z,50.20
2023-03-29T14:16:40.780Z,50.10
2023-03-29T14:19:42.536Z,50.20
2023-03-29T14:22:44.311Z,50.10
2023-03-29T14:25:47.063Z,50.10
2023-03-29T14:28:51.551Z,51.40
2023-03-29T14:31:53.163Z,51.70
2023-03-29T14:34:54.983Z,51.40
2023-03-29T14:37:57.090Z,51.50
2023-03-29T14:41:00.363Z,51.40
2023-03-29T14:44:03.162Z,51.70
2023-03-29T14:47:04.949Z,52.60
2023-03-29T14:50:13.089Z,52.00
2023-03-29T14:53:19.403Z,52.90
2023-03-29T14:56:25.275Z,52.80
2023-03-29T14:59:35.138Z,52.00
2023-03-29T15:02:36.918Z,52.00
2023-03-29T15:05:41.326Z,51.80
2023-03-29T15:08:54.409Z,51.10
2023-03-29T15:12:06.047Z,53.00
2023-03-29T15:15:11.905Z,53.90
2023-03-29T15:18:16.664Z,54.90
2023-03-29T15:21:22.036Z,54.70
2023-03-29T15:24:32.854Z,55.60
2023-03-29T15:27:42.940Z,55.90
2023-03-29T15:30:47.765Z,55.90
2023-03-29T15:34:09.073Z,55.80
2023-03-29T15:37:12.466Z,56.90
2023-03-29T15:40:16.624Z,56.50
2023-03-29T15:43:21.190Z,56.90
2023-03-29T15:46:22.788Z,56.90
2023-03-29T15:49:25.000Z,57.30
2023-03-29T15:52:26.585Z,57.70
2023-03-29T15:55:29.752Z,58.10
2023-03-29T15:58:32.406Z,58.50
2023-03-29T16:01:39.127Z,59.20
2023-03-29T16:04:41.012Z,59.20
2023-03-29T16:07:42.823Z,59.80
2023-03-29T16:10:44.430Z,59.50
2023-03-29T16:13:46.175Z,59.00
2023-03-29T16:16:47.890Z,59.30
2023-03-29T16:19:49.662Z,59.40
2023-03-29T16:22:51.726Z,59.90
2023-03-29T16:25:53.348Z,60.00
2023-03-29T16:28:54.921Z,59.70
2023-03-29T16:31:57.147Z,58.70
2023-03-29T16:34:58.801Z,58.30
2023-03-29T16:38:00.381Z,58.40
2023-03-29T16:41:01.968Z,58.90
2023-03-29T16:44:04.066Z,59.40
2023-03-29T16:47:05.698Z,59.80
2023-03-29T16:50:08.265Z,60.20
2023-03-29T16:53:10.880Z,60.50
2023-03-29T16:56:12.536Z,61.40
2023-03-29T16:59:14.208Z,62.20
2023-03-29T17:02:15.793Z,62.70
2023-03-29T17:05:18.687Z,63.50
2023-03-29T17:08:21.571Z,64.30
2023-03-29T17:11:23.443Z,64.80
2023-03-29T17:14:26.328Z,65.40
2023-03-29T17:17:28.349Z,65.80
2023-03-29T17:20:30.940Z,66.50
2023-03-29T17:23:32.726Z,67.10
2023-03-29T17:26:34.339Z,67.50
2023-03-29T17:29:35.924Z,67.60
2023-03-29T17:32:37.587Z,67.90
2023-03-29T17:35:42.442Z,68.60
2023-03-29T17:38:44.073Z,68.80
2023-03-29T17:41:47.118Z,68.80
2023-03-29T17:44:48.724Z,69.00
2023-03-29T17:47:50.412Z,69.30
2023-03-29T17:50:54.507Z,69.30
2023-03-29T17:53:57.085Z,69.80
2023-03-29T17:56:58.845Z,70.10
2023-03-29T18:00:00.600Z,70.20
2023-03-29T18:03:02.305Z,70.50
2023-03-29T18:06:05.524Z,70.60
2023-03-29T18:09:07.546Z,70.80
2023-03-29T18:12:09.280Z,70.80
2023-03-29T18:15:11.538Z,71.20
2023-03-29T18:18:13.146Z,71.40
2023-03-29T18:21:16.460Z,71.60
2023-03-29T18:24:18.195Z,71.90
2023-03-29T18:27:20.400Z,72.00
2023-03-29T18:30:22.189Z,71.90
2023-03-29T18:33:24.277Z,71.80
2023-03-29T18:36:27.700Z,70.20
2023-03-29T18:39:29.409Z,69.60
2023-03-29T18:42:31.024Z,69.30
2023-03-29T18:45:32.686Z,69.30
2023-03-29T18:48:39.019Z,68.70
2023-03-29T18:51:41.984Z,67.90
2023-03-29T18:54:43.656Z,67.50
2023-03-29T18:57:45.332Z,67.30
2023-03-29T19:00:46.904Z,67.00
2023-03-29T19:03:48.696Z,66.80
2023-03-29T19:06:50.492Z,66.60
2023-03-29T19:09:52.088Z,66.50
2023-03-29T19:12:53.652Z,66.50
2023-03-29T19:15:55.396Z,66.20
2023-03-29T19:18:57.199Z,66.10
2023-03-29T19:22:00.566Z,65.90
2023-03-29T19:25:04.486Z,65.90
2023-03-29T19:28:06.048Z,66.00
2023-03-29T19:31:07.761Z,65.70
2023-03-29T19:34:12.465Z,65.60
2023-03-29T19:37:15.576Z,65.50
2023-03-29T19:40:17.740Z,65.10
2023-03-29T19:43:20.591Z,65.20
2023-03-29T19:46:22.402Z,65.20
2023-03-29T19:49:24.036Z,65.00
2023-03-29T19:52:27.767Z,64.80
2023-03-29T19:55:29.457Z,64.80
2023-03-29T19:58:31.379Z,64.80
2023-03-29T20:01:33.524Z,64.80
2023-03-29T20:04:35.313Z,65.00
2023-03-29T20:07:37.020Z,65.10
2023-03-29T20:10:38.770Z,65.20
2023-03-29T20:13:44.611Z,65.30
2023-03-29T20:16:46.450Z,65.20
2023-03-29T20:19:48.151Z,65.20
2023-03-29T20:22:50.909Z,65.20
2023-03-29T20:25:52.677Z,65.10
2023-03-29T20:28:54.240Z,65.00
2023-03-29T20:31:55.799Z,64.70
2023-03-29T20:34:57.429Z,64.20
2023-03-29T20:37:59.017Z,63.80
2023-03-29T20:41:00.883Z,64.00
2023-03-29T20:44:02.890Z,64.20
2023-03-29T20:47:06.342Z,64.40
2023-03-29T20:50:10.433Z,65.20
2023-03-29T20:53:12.081Z,65.20
2023-03-29T20:56:14.518Z,65.20
2023-03-29T20:59:16.169Z,65.50
2023-03-29T21:02:21.783Z,65.80
2023-03-29T21:05:24.047Z,65.90
2023-03-29T21:08:28.481Z,66.20
2023-03-29T21:11:30.147Z,66.30
2023-03-29T21:14:33.365Z,66.60
2023-03-29T21:17:36.194Z,66.60
2023-03-29T21:20:37.916Z,66.80
2023-03-29T21:23:39.765Z,67.10
2023-03-29T21:26:41.914Z,67.30
2023-03-29T21:29:43.569Z,67.30
2023-03-29T21:32:45.227Z,67.40
2023-03-29T21:35:50.277Z,67.50
2023-03-29T21:38:52.403Z,67.30
2023-03-29T21:41:54.408Z,67.30
2023-03-29T21:44:56.118Z,67.40
2023-03-29T21:47:58.031Z,67.30
2023-03-29T21:50:59.709Z,67.30
2023-03-29T21:54:01.310Z,67.40
2023-03-29T21:57:02.975Z,67.30
2023-03-29T22:00:10.864Z,67.50
2023-03-29T22:03:13.171Z,67.80
2023-03-29T22:06:14.971Z,67.80
2023-03-29T22:09:16.556Z,67.70
2023-03-29T22:12:18.599Z,68.00
2023-03-29T22:15:22.929Z,68.10
2023-03-29T22:18:27.785Z,68.30
2023-03-29T22:21:31.589Z,68.40
2023-03-29T22:24:33.446Z,68.40
2023-03-29T22:27:35.349Z,68.50
2023-03-29T22:30:37.137Z,68.90
2023-03-29T22:33:39.687Z,68.90
2023-03-29T22:36:41.259Z,69.00
2023-03-29T22:39:42.796Z,69.20
2023-03-29T22:42:44.416Z,69.20
2023-03-29T22:45:46.358Z,69.10
2023-03-29T22:48:48.158Z,69.10
2023-03-29T22:51:49.904Z,69.10
2023-03-29T22:54:51.479Z,69.00
2023-03-29T22:57:53.017Z,69.10
2023-03-29T23:00:54.909Z,69.10
2023-03-29T23:03:56.536Z,68.90
2023-03-29T23:06:58.479Z,68.50
2023-03-29T23:10:00.020Z,68.80
2023-03-29T23:13:13.541Z,68.10
2023-03-29T23:16:15.543Z,68.10
2023-03-29T23:19:17.148Z,67.80
2023-03-29T23:22:18.705Z,67.60
2023-03-29T23:25:20.252Z,67.20
2023-03-29T23:28:24.847Z,66.80
2023-03-29T23:31:26.479Z,66.20
2023-03-29T23:34:28.173Z,65.60
2023-03-29T23:37:30.452Z,65.10
2023-03-29T23:40:33.115Z,64.70
2023-03-29T23:43:37.247Z,64.30
2023-03-29T23:46:39.111Z,63.80
2023-03-29T23:49:40.826Z,63.60
2023-03-29T23:52:42.536Z,63.50
2023-03-29T23:55:44.797Z,63.30
2023-03-29T23:58:46.626Z,63.00
